Time;durP1;ratioP1;P1;durP2;ratioP2;P2;SDS_P1;SDS_P2;PMS_P1;PMS_P2;Temp;Humidity;BMP_temperature;BMP_pressure;BME280_temperature;BME280_humidity;BME280_pressure;Samples;Min_cycle;Max_cycle;Signal;HPM_P1;HPM_P2
2023/10/13 06:28:41;;;;;;;27.63;10.50;;;;;;;;;;4974298;28;20442;-66
2023/10/13 06:31:08;;;;;;;30.57;11.30;;;;;;;;;;4973967;28;20438;-65
2023/10/13 06:33:34;;;;;;;19.20;9.90;;;;;;;;;;4973899;28;20415;-65
2023/10/13 06:36:09;;;;;;;23.80;10.47;;;;;;;;;;4973830;28;20462;-73
2023/10/13 06:38:37;;;;;;;16.03;9.47;;;;;;;;;;4974535;28;20441;-72
2023/10/13 06:41:07;;;;;;;26.10;11.30;;;;;;;;;;4985614;28;20501;-71
2023/10/13 06:43:39;;;;;;;26.73;11.20;;;;;;;;;;4973073;28;20495;-75
2023/10/13 06:46:05;;;;;;;23.30;9.80;;;;;;;;;;4974079;28;20830;-73
2023/10/13 06:48:34;;;;;;;29.40;11.00;;;;;;;;;;4993113;28;20426;-72
2023/10/13 06:51:04;;;;;;;32.50;11.87;;;;;;;;;;4993515;28;20431;-72
2023/10/13 06:53:37;;;;;;;28.20;10.87;;;;;;;;;;4991844;28;20913;-72
2023/10/13 06:56:06;;;;;;;30.33;11.97;;;;;;;;;;4993456;28;20940;-71
2023/10/13 06:58:32;;;;;;;38.37;11.00;;;;;;;;;;4992899;28;20944;-72
2023/10/13 07:00:59;;;;;;;30.53;10.87;;;;;;;;;;4992682;28;20474;-72
2023/10/13 07:03:25;;;;;;;33.27;13.40;;;;;;;;;;4993125;28;20933;-68
2023/10/13 07:05:52;;;;;;;33.93;10.70;;;;;;;;;;4992863;28;20898;-68
2023/10/13 07:08:21;;;;;;;35.43;10.57;;;;;;;;;;4992533;28;20403;-67
2023/10/13 07:10:51;;;;;;;28.23;11.13;;;;;;;;;;4992565;28;20427;-67
2023/10/13 07:13:19;;;;;;;26.03;11.97;;;;;;;;;;4992782;28;20961;-67
2023/10/13 07:15:45;;;;;;;36.63;10.70;;;;;;;;;;4992804;28;20415;-67
2023/10/13 07:18:23;;;;;;;23.13;10.47;;;;;;;;;;4992569;28;20949;-68
2023/10/13 07:20:49;;;;;;;32.10;11.57;;;;;;;;;;4992150;28;20893;-67
2023/10/13 07:23:18;;;;;;;24.97;11.53;;;;;;;;;;4990809;28;20851;-67
2023/10/13 07:25:53;;;;;;;29.60;9.87;;;;;;;;;;4991357;28;20434;-68
2023/10/13 07:28:19;;;;;;;35.57;12.23;;;;;;;;;;4991570;28;20422;-67
2023/10/13 07:33:20;;;;;;;23.97;10.80;;;;;;;;;;4993044;28;20421;-67
2023/10/13 07:35:50;;;;;;;33.83;12.13;;;;;;;;;;4993024;28;20813;-67
2023/10/13 07:38:16;;;;;;;28.00;11.47;;;;;;;;;;4992640;28;20430;-67
2023/10/13 07:40:50;;;;;;;28.47;10.03;;;;;;;;;;4992327;28;20529;-67
2023/10/13 07:43:21;;;;;;;32.70;11.27;;;;;;;;;;4992386;28;20814;-67
2023/10/13 07:45:58;;;;;;;25.10;10.20;;;;;;;;;;4992365;28;20434;-67
2023/10/13 07:48:25;;;;;;;21.43;10.00;;;;;;;;;;4987322;28;20921;-67
2023/10/13 07:51:03;;;;;;;30.80;10.80;;;;;;;;;;4992939;28;20442;-67
2023/10/13 07:53:34;;;;;;;30.37;9.97;;;;;;;;;;4991979;28;20429;-68
2023/10/13 07:56:05;;;;;;;30.27;10.53;;;;;;;;;;4992570;28;20488;-67
2023/10/13 07:58:32;;;;;;;23.97;9.73;;;;;;;;;;4995882;28;20418;-67
2023/10/13 08:08:38;;;;;;;27.03;10.93;;;;;;;;;;4995507;28;20484;-67
2023/10/13 08:11:11;;;;;;;35.63;10.10;;;;;;;;;;4993932;28;20470;-66
2023/10/13 08:13:46;;;;;;;22.60;9.00;;;;;;;;;;4994687;28;20472;-67
2023/10/13 08:16:20;;;;;;;21.50;9.00;;;;;;;;;;4996003;28;20441;-66
2023/10/13 08:18:48;;;;;;;21.90;9.77;;;;;;;;;;4995622;28;20798;-67
2023/10/13 08:21:19;;;;;;;20.83;9.07;;;;;;;;;;4994308;28;20547;-66
2023/10/13 08:26:30;;;;;;;36.60;9.80;;;;;;;;;;4995666;28;20502;-67
2023/10/13 08:29:53;;;;;;;34.77;9.83;;;;;;;;;;4995170;28;20482;-67
2023/10/13 08:34:29;;;;;;;24.47;8.67;;;;;;;;;;4995642;28;20410;-67
2023/10/13 08:36:56;;;;;;;19.00;8.10;;;;;;;;;;4995014;28;20435;-67
2023/10/13 08:42:12;;;;;;;19.90;9.07;;;;;;;;;;4994742;28;20527;-67
2023/10/13 08:44:52;;;;;;;16.13;8.20;;;;;;;;;;4988551;28;20423;-66
2023/10/13 08:47:20;;;;;;;22.20;8.57;;;;;;;;;;4994523;28;20410;-67
2023/10/13 08:49:50;;;;;;;15.53;7.47;;;;;;;;;;4999923;28;20429;-66
2023/10/13 08:55:39;;;;;;;19.13;8.20;;;;;;;;;;4976806;28;20470;-67
2023/10/13 08:58:13;;;;;;;29.47;8.13;;;;;;;;;;4991172;28;20418;-68
2023/10/13 09:00:56;;;;;;;16.33;6.70;;;;;;;;;;4999203;28;20469;-68
2023/10/13 09:03:28;;;;;;;19.33;7.97;;;;;;;;;;4995528;28;20529;-67
2023/10/13 09:06:01;;;;;;;11.90;7.00;;;;;;;;;;4995114;28;20955;-67
2023/10/13 09:08:43;;;;;;;25.70;6.77;;;;;;;;;;4994322;28;20900;-66
2023/10/13 09:11:13;;;;;;;18.00;6.83;;;;;;;;;;4995274;28;20470;-71
2023/10/13 09:13:45;;;;;;;15.93;5.80;;;;;;;;;;4994896;28;20411;-67
2023/10/13 09:17:34;;;;;;;15.50;6.37;;;;;;;;;;4994750;28;20893;-67
2023/10/13 09:19:11;;;;;;;15.53;5.90;;;;;;;;;;4985658;28;20485;-67
2023/10/13 09:26:55;;;;;;;11.63;5.93;;;;;;;;;;4995889;28;20446;-67
2023/10/13 09:29:22;;;;;;;20.07;6.40;;;;;;;;;;4994121;28;20434;-69
2023/10/13 09:31:59;;;;;;;15.90;6.10;;;;;;;;;;4995574;28;20446;-68
2023/10/13 09:34:29;;;;;;;13.13;5.90;;;;;;;;;;4995602;28;20497;-67
2023/10/13 09:36:58;;;;;;;16.10;5.87;;;;;;;;;;4995778;28;20489;-68
2023/10/13 09:39:30;;;;;;;15.10;6.80;;;;;;;;;;4997466;28;20430;-67
2023/10/13 09:41:59;;;;;;;14.27;6.10;;;;;;;;;;4994195;28;20514;-67
2023/10/13 09:44:26;;;;;;;19.20;5.70;;;;;;;;;;4995831;28;20410;-68
2023/10/13 09:46:52;;;;;;;15.63;5.67;;;;;;;;;;4993657;28;20430;-68
2023/10/13 09:49:37;;;;;;;14.50;5.97;;;;;;;;;;4995294;28;20422;-68
2023/10/13 09:52:10;;;;;;;14.50;5.10;;;;;;;;;;4993995;28;20447;-69
2023/10/13 09:54:41;;;;;;;15.70;4.70;;;;;;;;;;4995482;28;20905;-68
2023/10/13 09:57:18;;;;;;;12.87;4.40;;;;;;;;;;4994110;28;20781;-67
2023/10/13 09:59:55;;;;;;;14.43;4.90;;;;;;;;;;4991976;28;20520;-68
2023/10/13 10:02:27;;;;;;;15.80;4.30;;;;;;;;;;4993779;28;20545;-67
2023/10/13 10:05:12;;;;;;;11.33;4.00;;;;;;;;;;4993957;28;20415;-67
2023/10/13 10:07:39;;;;;;;8.60;3.87;;;;;;;;;;4993391;28;20498;-68
2023/10/13 10:10:08;;;;;;;18.10;4.50;;;;;;;;;;4993111;28;20906;-68
2023/10/13 10:12:46;;;;;;;13.97;4.40;;;;;;;;;;4992413;28;20752;-68
2023/10/13 10:15:33;;;;;;;12.90;4.90;;;;;;;;;;4993555;28;20423;-68
2023/10/13 10:18:00;;;;;;;16.77;4.70;;;;;;;;;;4995835;28;20407;-68
2023/10/13 10:20:44;;;;;;;14.67;4.63;;;;;;;;;;4993196;28;20536;-67
2023/10/13 10:23:21;;;;;;;13.70;5.73;;;;;;;;;;4992049;28;20433;-67
2023/10/13 10:25:48;;;;;;;12.53;4.73;;;;;;;;;;4988487;28;20522;-70
2023/10/13 10:28:16;;;;;;;10.60;4.83;;;;;;;;;;4992315;28;20430;-68
2023/10/13 10:30:43;;;;;;;14.93;4.70;;;;;;;;;;4991350;28;20454;-68
2023/10/13 10:33:15;;;;;;;9.87;4.10;;;;;;;;;;4993384;28;20485;-69
2023/10/13 10:35:42;;;;;;;18.40;5.03;;;;;;;;;;4991979;28;20808;-69
2023/10/13 10:38:23;;;;;;;12.80;4.00;;;;;;;;;;4992736;28;20446;-69
2023/10/13 10:41:00;;;;;;;7.90;4.80;;;;;;;;;;4992556;28;20820;-69
2023/10/13 10:43:42;;;;;;;8.60;4.20;;;;;;;;;;4992414;28;20851;-69
2023/10/13 10:46:14;;;;;;;8.33;4.57;;;;;;;;;;4993330;28;20415;-69
2023/10/13 10:48:43;;;;;;;14.83;4.70;;;;;;;;;;4992747;28;20417;-69
2023/10/13 10:51:22;;;;;;;19.03;4.80;;;;;;;;;;4992782;28;20989;-69
2023/10/13 10:53:51;;;;;;;14.67;4.83;;;;;;;;;;4993242;28;20429;-69
2023/10/13 10:59:01;;;;;;;16.37;4.67;;;;;;;;;;4984730;28;21019;-69
2023/10/13 11:01:38;;;;;;;13.10;4.80;;;;;;;;;;4984990;28;20467;-69
2023/10/13 11:06:58;;;;;;;11.23;4.23;;;;;;;;;;4984055;28;20541;-67
2023/10/13 11:11:58;;;;;;;8.97;4.53;;;;;;;;;;4992690;28;20430;-68
2023/10/13 11:14:24;;;;;;;20.30;7.20;;;;;;;;;;5056408;23;20576;-71
2023/10/13 11:16:53;;;;;;;24.63;8.03;;;;;;;;;;5031353;28;20945;-71
2023/10/13 11:19:25;;;;;;;10.67;4.73;;;;;;;;;;5031870;28;20405;-71
2023/10/13 11:21:55;;;;;;;10.53;5.57;;;;;;;;;;5031857;28;20484;-71
2023/10/13 11:24:21;;;;;;;16.50;5.40;;;;;;;;;;5030273;28;20393;-71
2023/10/13 11:26:49;;;;;;;18.63;6.00;;;;;;;;;;5011298;28;20479;-71
2023/10/13 11:29:18;;;;;;;10.40;5.20;;;;;;;;;;5012143;28;20444;-71
2023/10/13 11:31:45;;;;;;;9.30;4.33;;;;;;;;;;5011651;28;20410;-71
2023/10/13 11:34:18;;;;;;;17.83;4.30;;;;;;;;;;5012094;28;20425;-71
2023/10/13 11:36:45;;;;;;;12.60;5.00;;;;;;;;;;5010466;28;20897;-71
2023/10/13 11:39:17;;;;;;;10.30;4.53;;;;;;;;;;5010754;28;20771;-71
2023/10/13 11:41:53;;;;;;;23.30;5.10;;;;;;;;;;5011904;28;20473;-72
2023/10/13 11:46:55;;;;;;;16.43;4.73;;;;;;;;;;5011871;28;20410;-72
2023/10/13 11:52:15;;;;;;;12.90;4.30;;;;;;;;;;5011512;28;20825;-73
2023/10/13 11:54:41;;;;;;;14.20;4.60;;;;;;;;;;5012001;28;20761;-74
2023/10/13 11:57:08;;;;;;;6.57;4.00;;;;;;;;;;5011895;28;20881;-73
2023/10/13 11:59:36;;;;;;;12.40;5.10;;;;;;;;;;5006002;28;20423;-73
2023/10/13 12:04:43;;;;;;;15.57;4.67;;;;;;;;;;4993234;28;20436;-74
2023/10/13 12:07:26;;;;;;;6.47;4.57;;;;;;;;;;4992595;28;20414;-73
2023/10/13 12:12:27;;;;;;;18.37;5.17;;;;;;;;;;4992309;28;20413;-72
2023/10/13 12:14:55;;;;;;;15.00;4.70;;;;;;;;;;4992507;28;20545;-73
2023/10/13 12:17:31;;;;;;;13.50;4.97;;;;;;;;;;4993370;28;20432;-72
2023/10/13 12:20:00;;;;;;;10.07;4.30;;;;;;;;;;4991910;28;20973;-71
2023/10/13 12:22:35;;;;;;;13.50;4.50;;;;;;;;;;4991986;28;20421;-71
2023/10/13 12:25:04;;;;;;;14.53;4.90;;;;;;;;;;5004031;28;20823;-71
2023/10/13 12:27:45;;;;;;;10.07;4.87;;;;;;;;;;4991961;28;20465;-70
2023/10/13 12:30:13;;;;;;;10.57;4.60;;;;;;;;;;4991965;28;20461;-71
2023/10/13 12:32:44;;;;;;;10.03;4.37;;;;;;;;;;4991844;28;20411;-70
2023/10/13 12:53:51;;;;;;;9.50;4.60;;;;;;;;;;5015045;28;20416;-71
2023/10/13 12:56:17;;;;;;;7.80;3.93;;;;;;;;;;5014589;28;20446;-70
2023/10/13 12:58:54;;;;;;;17.03;4.50;;;;;;;;;;5014586;28;21055;-70
2023/10/13 13:01:23;;;;;;;12.73;4.33;;;;;;;;;;5014023;28;20816;-72
2023/10/13 13:03:49;;;;;;;8.97;4.10;;;;;;;;;;5014945;28;20402;-71
2023/10/13 13:06:25;;;;;;;16.10;4.50;;;;;;;;;;5014346;28;20509;-71
2023/10/13 13:08:55;;;;;;;11.27;4.63;;;;;;;;;;5013254;28;20410;-72
2023/10/13 13:11:21;;;;;;;11.00;4.23;;;;;;;;;;4994357;28;20439;-71
2023/10/13 13:13:47;;;;;;;14.37;4.77;;;;;;;;;;4995461;28;20419;-70
2023/10/13 13:16:13;;;;;;;9.23;3.93;;;;;;;;;;4995621;28;20458;-70
2023/10/13 13:18:39;;;;;;;11.13;4.90;;;;;;;;;;4995605;28;20445;-71
2023/10/13 13:21:12;;;;;;;8.77;4.30;;;;;;;;;;4994760;28;20981;-71
2023/10/13 13:23:39;;;;;;;17.50;5.17;;;;;;;;;;4993431;28;20906;-72
2023/10/13 13:26:15;;;;;;;24.53;4.97;;;;;;;;;;4993389;28;20446;-71
2023/10/13 13:28:50;;;;;;;12.97;5.17;;;;;;;;;;4994794;28;20505;-70
2023/10/13 13:31:17;;;;;;;10.70;4.77;;;;;;;;;;4997193;28;20395;-71
2023/10/13 13:33:43;;;;;;;11.10;4.40;;;;;;;;;;4996603;28;20615;-69
2023/10/13 13:36:15;;;;;;;10.73;4.60;;;;;;;;;;5005843;28;20996;-71
2023/10/13 13:38:51;;;;;;;15.73;4.87;;;;;;;;;;5014116;28;20425;-72
2023/10/13 13:41:18;;;;;;;8.70;4.37;;;;;;;;;;5012395;28;20476;-72
2023/10/13 13:46:17;;;;;;;10.47;4.43;;;;;;;;;;5014069;28;20445;-72
2023/10/13 13:48:43;;;;;;;15.57;4.50;;;;;;;;;;5013607;28;20449;-71
2023/10/13 13:51:15;;;;;;;13.10;5.07;;;;;;;;;;5025141;28;20433;-71
2023/10/13 13:53:45;;;;;;;12.60;4.83;;;;;;;;;;5014269;28;20414;-71
2023/10/13 13:56:15;;;;;;;11.03;4.50;;;;;;;;;;5016851;28;20442;-72
2023/10/13 13:58:42;;;;;;;17.13;4.90;;;;;;;;;;5014405;28;20426;-72
2023/10/13 14:01:15;;;;;;;9.40;4.50;;;;;;;;;;5009512;28;20867;-72
2023/10/13 14:03:47;;;;;;;13.60;4.47;;;;;;;;;;5001300;28;20458;-72
2023/10/13 14:06:18;;;;;;;10.43;4.27;;;;;;;;;;5011916;28;20462;-72
2023/10/13 14:08:57;;;;;;;12.47;4.60;;;;;;;;;;5006916;28;20501;-73
2023/10/13 14:14:11;;;;;;;8.30;4.17;;;;;;;;;;5013343;28;20962;-72
2023/10/13 14:16:37;;;;;;;10.80;4.20;;;;;;;;;;5009948;28;20564;-72
2023/10/13 14:19:07;;;;;;;10.20;4.13;;;;;;;;;;5013089;28;20422;-72
2023/10/13 14:21:34;;;;;;;8.93;4.00;;;;;;;;;;5013071;28;20454;-71
2023/10/13 14:24:01;;;;;;;8.27;4.00;;;;;;;;;;5013043;28;20414;-72
2023/10/13 14:26:28;;;;;;;10.33;4.70;;;;;;;;;;5012740;28;20437;-72
2023/10/13 14:29:27;;;;;;;8.37;4.63;;;;;;;;;;5006775;28;20427;-72
2023/10/13 14:31:48;;;;;;;9.73;4.40;;;;;;;;;;5000652;28;20407;-72
2023/10/13 14:34:15;;;;;;;8.97;4.67;;;;;;;;;;5008965;28;21087;-72
2023/10/13 14:36:41;;;;;;;14.23;4.30;;;;;;;;;;5007060;28;20414;-72
2023/10/13 14:39:10;;;;;;;11.80;4.47;;;;;;;;;;5005666;28;20420;-71
2023/10/13 14:41:37;;;;;;;8.40;4.00;;;;;;;;;;5010758;28;20520;-72
2023/10/13 14:44:06;;;;;;;12.90;4.10;;;;;;;;;;5007910;28;20473;-71
2023/10/13 14:46:35;;;;;;;11.77;4.23;;;;;;;;;;5012103;28;20434;-71
2023/10/13 14:49:02;;;;;;;7.90;3.30;;;;;;;;;;5012342;28;20418;-72
2023/10/13 14:51:28;;;;;;;9.13;4.27;;;;;;;;;;5012091;28;20418;-72
2023/10/13 14:53:56;;;;;;;8.30;4.50;;;;;;;;;;5009604;28;20509;-72
2023/10/13 14:56:25;;;;;;;6.43;3.60;;;;;;;;;;5010128;28;20440;-70
2023/10/13 14:58:51;;;;;;;9.40;4.10;;;;;;;;;;5011439;28;20484;-70
2023/10/13 15:01:19;;;;;;;7.60;3.90;;;;;;;;;;5012325;28;20556;-69
2023/10/13 15:03:46;;;;;;;10.20;4.07;;;;;;;;;;5012701;28;20429;-71
2023/10/13 15:06:24;;;;;;;7.77;4.10;;;;;;;;;;5011688;28;20944;-71
2023/10/13 15:08:50;;;;;;;8.63;4.17;;;;;;;;;;5007311;28;20424;-70
2023/10/13 15:11:19;;;;;;;9.60;3.50;;;;;;;;;;5012408;28;20425;-70
2023/10/13 15:13:49;;;;;;;11.57;3.57;;;;;;;;;;5012043;28;20436;-70
2023/10/13 15:16:16;;;;;;;6.93;4.20;;;;;;;;;;5012694;28;20461;-70
2023/10/13 15:18:42;;;;;;;9.10;3.70;;;;;;;;;;5006931;28;20510;-71
2023/10/13 15:21:08;;;;;;;10.17;4.03;;;;;;;;;;4991110;28;20565;-71
2023/10/13 15:23:42;;;;;;;14.73;3.60;;;;;;;;;;4991067;28;20415;-72
2023/10/13 15:26:09;;;;;;;8.20;3.77;;;;;;;;;;4992752;28;20435;-76
2023/10/13 15:28:37;;;;;;;12.03;3.90;;;;;;;;;;5015194;28;20941;-71
2023/10/13 15:31:22;;;;;;;8.47;3.57;;;;;;;;;;4999244;28;20829;-72
2023/10/13 15:33:57;;;;;;;10.03;3.83;;;;;;;;;;5010317;28;20922;-71
2023/10/13 15:36:23;;;;;;;6.47;3.37;;;;;;;;;;4996279;28;20469;-71
2023/10/13 15:38:52;;;;;;;8.73;3.20;;;;;;;;;;5005362;28;20556;-74
2023/10/13 15:41:22;;;;;;;8.20;3.70;;;;;;;;;;5011793;28;20556;-73
2023/10/13 15:43:51;;;;;;;9.03;3.97;;;;;;;;;;5011651;28;20418;-75
2023/10/13 15:46:17;;;;;;;6.40;3.67;;;;;;;;;;5009867;28;20477;-73
2023/10/13 15:48:46;;;;;;;12.30;4.13;;;;;;;;;;5011315;28;20433;-73
2023/10/13 15:51:12;;;;;;;12.20;3.80;;;;;;;;;;5012087;28;20935;-73
2023/10/13 15:53:39;;;;;;;7.30;3.50;;;;;;;;;;5011467;28;20437;-73
2023/10/13 15:56:17;;;;;;;7.63;3.70;;;;;;;;;;5017755;28;20435;-74
2023/10/13 15:58:46;;;;;;;6.90;3.83;;;;;;;;;;5006168;28;20415;-74
2023/10/13 16:01:15;;;;;;;9.27;4.23;;;;;;;;;;4991624;28;20462;-74
2023/10/13 16:03:49;;;;;;;13.13;5.13;;;;;;;;;;4992978;28;20455;-74
2023/10/13 16:06:15;;;;;;;8.63;3.40;;;;;;;;;;4991999;28;20435;-74
2023/10/13 16:08:42;;;;;;;7.60;3.57;;;;;;;;;;4991937;28;20414;-73
2023/10/13 16:11:13;;;;;;;7.80;4.07;;;;;;;;;;4992045;28;20421;-73
2023/10/13 16:13:39;;;;;;;9.37;4.10;;;;;;;;;;4992036;28;20847;-74
2023/10/13 16:16:05;;;;;;;6.03;3.23;;;;;;;;;;4991687;28;20458;-74
2023/10/13 16:18:32;;;;;;;10.60;4.20;;;;;;;;;;4993639;28;20426;-74
2023/10/13 16:20:59;;;;;;;12.13;3.50;;;;;;;;;;4994388;28;20492;-74
2023/10/13 16:23:25;;;;;;;13.37;4.80;;;;;;;;;;4995692;28;20431;-75
2023/10/13 16:25:51;;;;;;;11.10;3.93;;;;;;;;;;4995283;28;21013;-75
2023/10/13 16:28:17;;;;;;;9.97;3.97;;;;;;;;;;4995392;28;20902;-74
2023/10/13 16:30:44;;;;;;;11.00;3.73;;;;;;;;;;4995567;28;20415;-74
2023/10/13 16:33:10;;;;;;;6.77;3.40;;;;;;;;;;4995516;28;20418;-74
2023/10/13 16:35:36;;;;;;;8.87;4.23;;;;;;;;;;4995277;28;20853;-74
2023/10/13 16:38:10;;;;;;;11.07;4.10;;;;;;;;;;4994783;28;20469;-74
2023/10/13 16:40:39;;;;;;;10.23;4.17;;;;;;;;;;4995984;28;20900;-73
2023/10/13 16:43:07;;;;;;;14.53;5.60;;;;;;;;;;4997940;28;20855;-75
2023/10/13 16:45:36;;;;;;;19.83;4.97;;;;;;;;;;4993441;28;20961;-73
2023/10/13 16:48:02;;;;;;;11.53;4.80;;;;;;;;;;5000532;28;20422;-74
2023/10/13 16:50:28;;;;;;;13.23;5.23;;;;;;;;;;5014187;28;20436;-74
2023/10/13 16:52:56;;;;;;;12.80;6.00;;;;;;;;;;5000561;28;20427;-74
2023/10/13 16:55:24;;;;;;;11.37;5.47;;;;;;;;;;4995178;28;20430;-74
2023/10/13 16:57:50;;;;;;;15.67;6.00;;;;;;;;;;4993313;28;20517;-74
2023/10/13 17:00:18;;;;;;;18.23;6.03;;;;;;;;;;4995016;28;20462;-73
2023/10/13 17:02:45;;;;;;;10.80;4.90;;;;;;;;;;4995067;28;20428;-73
2023/10/13 17:05:17;;;;;;;10.07;4.57;;;;;;;;;;4994721;28;20435;-74
2023/10/13 17:07:46;;;;;;;10.03;5.00;;;;;;;;;;4994809;28;20422;-74
2023/10/13 17:10:14;;;;;;;8.90;4.53;;;;;;;;;;4995009;28;20498;-73
2023/10/13 17:12:39;;;;;;;14.30;6.70;;;;;;;;;;5008381;28;20468;-74
2023/10/13 17:15:13;;;;;;;15.00;6.57;;;;;;;;;;5014732;28;20489;-75
2023/10/13 17:17:40;;;;;;;19.57;8.10;;;;;;;;;;5014404;28;21185;-75
2023/10/13 17:20:09;;;;;;;14.27;8.17;;;;;;;;;;5013778;28;20958;-74
2023/10/13 17:22:36;;;;;;;18.20;9.60;;;;;;;;;;5006878;28;20431;-72
2023/10/13 17:25:03;;;;;;;21.83;10.73;;;;;;;;;;4994793;28;20439;-74
2023/10/13 17:27:32;;;;;;;16.07;8.47;;;;;;;;;;4993217;28;20427;-74
2023/10/13 17:29:58;;;;;;;19.17;8.50;;;;;;;;;;5004558;28;20448;-75
2023/10/13 17:32:24;;;;;;;18.03;8.00;;;;;;;;;;5012397;28;20545;-72
2023/10/13 17:34:51;;;;;;;20.33;7.93;;;;;;;;;;4992815;28;20435;-74
2023/10/13 17:37:17;;;;;;;15.20;7.03;;;;;;;;;;4994391;28;20482;-74
2023/10/13 17:39:44;;;;;;;18.10;6.20;;;;;;;;;;4993356;28;20449;-74
2023/10/13 17:42:13;;;;;;;16.37;6.00;;;;;;;;;;4994581;28;20403;-73
2023/10/13 17:44:39;;;;;;;9.00;5.23;;;;;;;;;;5003989;28;20941;-73
2023/10/13 17:47:10;;;;;;;11.67;5.63;;;;;;;;;;5012139;28;20436;-73
2023/10/13 17:49:39;;;;;;;10.30;4.30;;;;;;;;;;5013773;28;20402;-73
2023/10/13 17:52:05;;;;;;;15.10;5.17;;;;;;;;;;5014281;28;20892;-72
2023/10/13 17:54:31;;;;;;;11.77;5.03;;;;;;;;;;5005884;28;20462;-73
2023/10/13 17:56:57;;;;;;;11.57;5.20;;;;;;;;;;4994192;28;20499;-73
2023/10/13 17:59:23;;;;;;;15.30;6.53;;;;;;;;;;4994000;28;20414;-73
2023/10/13 18:01:49;;;;;;;17.27;8.00;;;;;;;;;;4994992;28;20455;-73
2023/10/13 18:04:15;;;;;;;13.57;7.20;;;;;;;;;;5006783;28;20426;-72
2023/10/13 18:06:42;;;;;;;12.73;5.73;;;;;;;;;;5003203;28;20466;-72
2023/10/13 18:09:11;;;;;;;14.43;5.83;;;;;;;;;;4994008;28;20662;-72
2023/10/13 18:11:37;;;;;;;14.03;5.87;;;;;;;;;;4994168;28;20779;-72
2023/10/13 18:14:03;;;;;;;12.90;5.90;;;;;;;;;;4994196;28;20510;-73
2023/10/13 18:16:30;;;;;;;15.17;6.00;;;;;;;;;;4994140;28;20458;-73
2023/10/13 18:18:56;;;;;;;21.10;5.73;;;;;;;;;;4995286;28;20780;-72
2023/10/13 18:21:22;;;;;;;19.40;6.83;;;;;;;;;;4994624;28;20461;-72
2023/10/13 18:23:49;;;;;;;11.43;6.37;;;;;;;;;;4993741;28;20418;-73
2023/10/13 18:26:15;;;;;;;18.30;8.10;;;;;;;;;;4993679;28;20886;-74
2023/10/13 18:28:41;;;;;;;13.50;7.13;;;;;;;;;;4999869;28;20941;-74
2023/10/13 18:31:10;;;;;;;16.73;10.17;;;;;;;;;;5013329;28;20410;-74
2023/10/13 18:33:36;;;;;;;19.10;10.60;;;;;;;;;;5013109;28;20789;-73
2023/10/13 18:36:19;;;;;;;18.60;9.30;;;;;;;;;;5013217;28;20430;-73
2023/10/13 18:38:46;;;;;;;21.33;7.80;;;;;;;;;;5012975;28;20928;-75
2023/10/13 18:41:14;;;;;;;16.73;8.20;;;;;;;;;;4996945;28;20466;-74
2023/10/13 18:43:40;;;;;;;29.60;9.60;;;;;;;;;;4993886;28;20407;-74
2023/10/13 18:46:07;;;;;;;24.87;9.50;;;;;;;;;;4993925;28;20430;-74
2023/10/13 18:48:36;;;;;;;22.43;8.33;;;;;;;;;;4993395;28;20506;-73
2023/10/13 18:51:06;;;;;;;18.10;7.97;;;;;;;;;;4996662;28;20516;-74
2023/10/13 18:53:33;;;;;;;21.00;8.60;;;;;;;;;;5013092;28;20445;-73
2023/10/13 18:56:09;;;;;;;24.33;8.60;;;;;;;;;;5012838;28;20492;-73
2023/10/13 18:58:39;;;;;;;13.43;6.93;;;;;;;;;;5012651;28;20900;-75
2023/10/13 19:01:16;;;;;;;18.33;8.20;;;;;;;;;;5012745;28;20515;-74
2023/10/13 19:03:43;;;;;;;17.53;7.50;;;;;;;;;;5012020;28;20433;-72
2023/10/13 19:06:09;;;;;;;18.57;6.70;;;;;;;;;;5012965;28;20525;-74
2023/10/13 19:08:35;;;;;;;14.27;8.30;;;;;;;;;;5012777;28;20446;-73
2023/10/13 19:11:08;;;;;;;16.80;6.83;;;;;;;;;;5012579;28;20460;-75
2023/10/13 19:13:34;;;;;;;15.77;6.77;;;;;;;;;;5012102;28;20484;-75
2023/10/13 19:16:03;;;;;;;17.77;7.57;;;;;;;;;;4996169;28;20466;-73
2023/10/13 19:18:29;;;;;;;15.20;8.47;;;;;;;;;;4991332;28;20939;-74
2023/10/13 19:20:56;;;;;;;26.53;10.40;;;;;;;;;;4993166;28;20494;-73
2023/10/13 19:23:26;;;;;;;23.13;8.20;;;;;;;;;;4993312;28;20414;-73
2023/10/13 19:25:55;;;;;;;14.80;7.57;;;;;;;;;;5006577;28;20461;-74
2023/10/13 19:28:22;;;;;;;23.20;9.17;;;;;;;;;;5012064;28;20865;-74
2023/10/13 19:30:48;;;;;;;18.30;7.50;;;;;;;;;;5011518;28;20422;-74
2023/10/13 19:33:14;;;;;;;21.50;7.47;;;;;;;;;;5010706;28;20418;-74
2023/10/13 19:35:40;;;;;;;18.20;8.17;;;;;;;;;;5010670;28;20501;-74
2023/10/13 19:38:07;;;;;;;14.60;7.37;;;;;;;;;;5011290;28;20426;-73
2023/10/13 19:40:36;;;;;;;24.20;9.33;;;;;;;;;;5012239;28;20465;-74
2023/10/13 19:43:11;;;;;;;18.60;9.07;;;;;;;;;;5011045;28;20418;-73
2023/10/13 19:45:41;;;;;;;21.20;8.60;;;;;;;;;;5012092;28;20433;-72
2023/10/13 19:48:09;;;;;;;16.77;7.73;;;;;;;;;;5011579;28;20406;-73
2023/10/13 19:50:36;;;;;;;18.30;8.13;;;;;;;;;;4992437;28;20419;-73
2023/10/13 19:53:04;;;;;;;19.23;7.50;;;;;;;;;;4992365;28;20891;-73
2023/10/13 19:55:36;;;;;;;22.53;8.27;;;;;;;;;;4992570;28;20812;-75
2023/10/13 19:58:02;;;;;;;18.57;7.57;;;;;;;;;;4992123;28;20807;-73
2023/10/13 20:00:33;;;;;;;13.73;6.60;;;;;;;;;;4995209;28;20520;-74
2023/10/13 20:02:59;;;;;;;13.50;6.40;;;;;;;;;;5012011;28;20799;-72
2023/10/13 20:05:25;;;;;;;13.17;6.27;;;;;;;;;;5011991;28;20437;-73
2023/10/13 20:07:53;;;;;;;21.33;7.87;;;;;;;;;;5011670;28;20418;-72
2023/10/13 20:10:20;;;;;;;22.07;7.00;;;;;;;;;;5010492;28;20940;-73
2023/10/13 20:12:46;;;;;;;19.33;7.00;;;;;;;;;;5008695;28;20834;-73
2023/10/13 20:15:13;;;;;;;13.73;5.80;;;;;;;;;;4992432;28;20451;-72
2023/10/13 20:17:41;;;;;;;15.87;6.63;;;;;;;;;;4992306;28;20411;-73
2023/10/13 20:20:08;;;;;;;17.10;7.23;;;;;;;;;;4992729;28;20466;-73
2023/10/13 20:22:34;;;;;;;9.87;5.00;;;;;;;;;;4992575;28;20911;-73
2023/10/13 20:25:05;;;;;;;12.60;3.80;;;;;;;;;;4997405;28;20449;-72
2023/10/13 20:27:31;;;;;;;9.50;3.93;;;;;;;;;;5011789;28;20823;-72
2023/10/13 20:29:57;;;;;;;10.03;4.87;;;;;;;;;;5012312;28;20410;-74
2023/10/13 20:32:23;;;;;;;11.27;4.70;;;;;;;;;;5012267;28;20418;-74
2023/10/13 20:34:49;;;;;;;12.70;3.90;;;;;;;;;;5012143;28;20963;-75
2023/10/13 20:37:18;;;;;;;9.47;4.73;;;;;;;;;;5004651;28;20818;-73
2023/10/13 20:39:45;;;;;;;8.37;4.23;;;;;;;;;;4992570;28;20420;-72
2023/10/13 20:42:15;;;;;;;12.73;4.40;;;;;;;;;;4992460;28;20422;-73
2023/10/13 20:44:41;;;;;;;8.20;4.00;;;;;;;;;;4992171;28;20926;-72
2023/10/13 20:47:10;;;;;;;10.20;4.20;;;;;;;;;;5008150;28;20426;-73
2023/10/13 20:49:37;;;;;;;10.53;4.43;;;;;;;;;;5011545;28;20406;-72
2023/10/13 20:52:05;;;;;;;9.20;4.37;;;;;;;;;;5011726;28;20416;-72
2023/10/13 20:54:31;;;;;;;11.73;4.77;;;;;;;;;;5011624;28;20932;-73
2023/10/13 20:56:57;;;;;;;18.87;4.40;;;;;;;;;;5011222;28;20552;-73
2023/10/13 20:59:23;;;;;;;7.40;3.67;;;;;;;;;;5011702;28;20410;-73
2023/10/13 21:01:49;;;;;;;9.33;3.80;;;;;;;;;;5011637;28;20764;-73
2023/10/13 21:04:15;;;;;;;9.10;4.43;;;;;;;;;;5012639;28;20417;-72
2023/10/13 21:06:44;;;;;;;10.17;3.73;;;;;;;;;;5014894;28;20406;-73
2023/10/13 21:09:19;;;;;;;9.60;4.23;;;;;;;;;;5014448;28;20432;-74
2023/10/13 21:11:45;;;;;;;9.67;3.80;;;;;;;;;;5014924;28;20414;-73
2023/10/13 21:14:12;;;;;;;13.20;4.63;;;;;;;;;;5015104;28;20436;-75
2023/10/13 21:16:41;;;;;;;9.83;4.27;;;;;;;;;;5015009;28;20430;-75
2023/10/13 21:19:07;;;;;;;13.00;5.30;;;;;;;;;;5014624;28;20417;-73
2023/10/13 21:21:34;;;;;;;15.47;4.67;;;;;;;;;;4995849;28;20473;-73
2023/10/13 21:24:04;;;;;;;10.17;4.13;;;;;;;;;;4995195;28;20486;-73
2023/10/13 21:26:30;;;;;;;10.77;3.97;;;;;;;;;;4996968;28;20855;-73
2023/10/13 21:28:56;;;;;;;9.40;5.10;;;;;;;;;;5000600;28;20426;-73
2023/10/13 21:31:23;;;;;;;5.07;3.10;;;;;;;;;;5015227;28;20442;-73
2023/10/13 21:33:49;;;;;;;8.63;4.03;;;;;;;;;;5015344;28;20469;-73
2023/10/13 21:36:15;;;;;;;6.60;3.40;;;;;;;;;;5014869;28;20521;-73
2023/10/13 21:38:48;;;;;;;8.17;4.40;;;;;;;;;;5012026;28;20905;-74
2023/10/13 21:41:15;;;;;;;8.20;3.43;;;;;;;;;;4995372;28;20466;-73
2023/10/13 21:43:45;;;;;;;7.53;3.60;;;;;;;;;;4996120;28;20451;-73
2023/10/13 21:46:18;;;;;;;8.33;3.87;;;;;;;;;;4996043;28;20455;-72
2023/10/13 21:48:47;;;;;;;10.80;3.33;;;;;;;;;;4995952;28;20442;-74
2023/10/13 21:51:15;;;;;;;9.60;3.93;;;;;;;;;;5006176;28;20933;-72
2023/10/13 21:53:42;;;;;;;10.00;3.97;;;;;;;;;;5016187;28;21031;-71
2023/10/13 21:56:17;;;;;;;6.93;3.60;;;;;;;;;;5014505;28;20434;-73
2023/10/13 21:58:43;;;;;;;6.37;3.00;;;;;;;;;;5014188;28;20577;-73
2023/10/13 22:03:52;;;;;;;8.53;3.83;;;;;;;;;;5010000;28;20430;-74
2023/10/13 22:06:21;;;;;;;9.33;3.40;;;;;;;;;;4994159;28;20462;-74
2023/10/13 22:08:46;;;;;;;8.60;3.97;;;;;;;;;;4994053;28;20913;-72
2023/10/13 22:11:14;;;;;;;10.00;3.77;;;;;;;;;;4994355;28;20422;-73
2023/10/13 22:13:40;;;;;;;8.50;3.33;;;;;;;;;;5011205;28;20823;-72
2023/10/13 22:16:10;;;;;;;9.10;4.30;;;;;;;;;;5013280;28;20454;-74
2023/10/13 22:18:42;;;;;;;10.37;4.00;;;;;;;;;;5013321;28;20772;-74
2023/10/13 22:21:12;;;;;;;7.63;3.90;;;;;;;;;;5013517;28;20493;-72
2023/10/13 22:23:39;;;;;;;10.03;3.90;;;;;;;;;;5010843;28;20993;-73